Time;durP1;ratioP1;P1;durP2;ratioP2;P2;SDS_P1;SDS_P2;PMS_P1;PMS_P2;Temp;Humidity;BMP_temperature;BMP_pressure;BME280_temperature;BME280_humidity;BME280_pressure;Samples;Min_cycle;Max_cycle;Signal;HPM_P1;HPM_P2
2023/03/12 00:02:09;;;;;;;2.65;1.67;;;14.30;60.40;;;;;;10468484;28;20025;-61
2023/03/12 00:07:10;;;;;;;2.75;1.98;;;14.30;60.30;;;;;;10451430;28;20059;-61
2023/03/12 00:12:11;;;;;;;2.70;1.63;;;14.20;60.30;;;;;;10451942;28;20587;-60
2023/03/12 00:17:11;;;;;;;3.13;1.95;;;14.20;60.30;;;;;;10451356;28;20021;-61
2023/03/12 00:22:13;;;;;;;2.75;1.80;;;14.20;60.30;;;;;;10450860;28;20028;-61
2023/03/12 00:27:13;;;;;;;3.50;2.10;;;14.20;60.30;;;;;;10450920;28;20098;-61
2023/03/12 00:32:14;;;;;;;3.05;2.00;;;14.20;60.10;;;;;;10450454;28;20124;-61
2023/03/12 00:37:15;;;;;;;3.58;1.90;;;14.20;59.70;;;;;;10445365;28;20029;-61
2023/03/12 00:42:16;;;;;;;3.22;2.10;;;14.20;59.80;;;;;;10450465;28;20100;-61
2023/03/12 00:47:16;;;;;;;3.22;1.90;;;14.20;60.00;;;;;;10451240;28;20039;-62
2023/03/12 00:52:17;;;;;;;2.42;1.98;;;14.10;60.00;;;;;;10445973;28;20105;-62
2023/03/12 00:57:18;;;;;;;2.80;1.80;;;14.20;60.10;;;;;;10449775;28;20116;-61
2023/03/12 01:02:18;;;;;;;2.60;1.70;;;14.10;60.00;;;;;;10449544;28;20112;-61
2023/03/12 01:07:19;;;;;;;3.92;2.03;;;14.10;60.10;;;;;;10449194;28;20194;-61
2023/03/12 01:12:20;;;;;;;2.65;1.70;;;14.10;60.10;;;;;;10450387;28;20167;-61
2023/03/12 01:17:20;;;;;;;2.55;2.25;;;14.10;60.10;;;;;;10430007;28;20025;-61
2023/03/12 01:22:21;;;;;;;3.90;2.85;;;14.10;60.10;;;;;;10448910;28;20052;-62
2023/03/12 01:27:22;;;;;;;2.75;2.08;;;14.10;60.10;;;;;;10450127;28;20021;-62
2023/03/12 01:32:23;;;;;;;2.47;1.77;;;14.00;60.10;;;;;;10448345;28;20108;-61
2023/03/12 01:37:23;;;;;;;4.55;1.88;;;14.10;60.10;;;;;;10449334;28;20120;-62
2023/03/12 01:42:24;;;;;;;2.53;1.98;;;14.10;60.10;;;;;;10449068;28;20028;-61
2023/03/12 01:47:26;;;;;;;2.97;1.77;;;14.00;60.00;;;;;;10434114;28;20074;-61
2023/03/12 01:52:35;;;;;;;3.00;2.22;;;14.00;60.00;;;;;;10447759;28;20021;-64
2023/03/12 01:57:50;;;;;;;2.53;1.92;;;14.00;60.10;;;;;;10442520;28;20032;-61
2023/03/12 02:02:58;;;;;;;4.22;2.70;;;14.00;60.10;;;;;;10447031;28;20021;-61
2023/03/12 02:07:59;;;;;;;2.42;1.77;;;14.00;60.10;;;;;;10446807;28;20412;-62
2023/03/12 02:12:59;;;;;;;2.38;1.60;;;14.00;60.10;;;;;;10446806;28;20108;-61
2023/03/12 02:18:04;;;;;;;2.10;1.35;;;14.00;60.10;;;;;;10428964;28;20029;-61
2023/03/12 02:23:30;;;;;;;3.38;1.90;;;13.90;60.00;;;;;;10446302;28;20090;-61
2023/03/12 02:28:41;;;;;;;3.40;2.13;;;13.90;60.00;;;;;;10447568;28;20032;-61
2023/03/12 02:33:42;;;;;;;2.53;1.58;;;13.90;60.00;;;;;;10446296;28;20025;-61
2023/03/12 02:38:46;;;;;;;2.50;1.67;;;13.90;60.30;;;;;;10429346;28;20480;-61
2023/03/12 02:44:15;;;;;;;3.55;1.73;;;13.90;59.90;;;;;;10445572;28;20017;-61
2023/03/12 02:49:18;;;;;;;2.42;1.67;;;13.90;59.50;;;;;;10441448;28;20017;-61
2023/03/12 02:54:20;;;;;;;2.78;1.45;;;13.90;59.30;;;;;;10445536;28;20010;-61
2023/03/12 02:59:24;;;;;;;2.97;1.63;;;13.90;59.40;;;;;;10446714;28;20033;-61
2023/03/12 03:04:27;;;;;;;2.55;1.63;;;13.90;59.60;;;;;;10445185;28;20668;-61
2023/03/12 03:09:27;;;;;;;1.88;1.30;;;13.90;59.70;;;;;;10444832;28;20052;-61
2023/03/12 03:14:28;;;;;;;1.75;1.08;;;13.90;59.70;;;;;;10432159;28;20051;-62
2023/03/12 03:19:29;;;;;;;2.35;1.77;;;13.80;59.70;;;;;;10449350;28;20113;-60
2023/03/12 03:24:29;;;;;;;2.45;1.38;;;13.80;59.80;;;;;;10445830;28;20048;-62
2023/03/12 03:29:30;;;;;;;2.47;1.40;;;13.80;59.80;;;;;;10447473;28;20013;-61
2023/03/12 03:34:31;;;;;;;3.70;1.83;;;13.80;59.80;;;;;;10452674;28;20025;-61
2023/03/12 03:39:33;;;;;;;3.42;1.83;;;13.80;59.80;;;;;;10452692;28;20136;-61
2023/03/12 03:44:34;;;;;;;1.75;1.23;;;13.80;59.00;;;;;;10446558;28;20037;-60
2023/03/12 03:49:34;;;;;;;2.15;1.50;;;14.00;58.80;;;;;;10448592;28;20037;-61
2023/03/12 03:54:35;;;;;;;2.72;1.70;;;14.10;58.40;;;;;;10452501;28;20024;-61
2023/03/12 03:59:36;;;;;;;3.47;1.58;;;14.30;57.50;;;;;;10452903;28;20132;-61
2023/03/12 04:04:36;;;;;;;3.08;1.65;;;14.50;56.90;;;;;;10453228;28;20088;-61
2023/03/12 04:09:37;;;;;;;2.58;1.42;;;14.70;56.30;;;;;;10451626;28;20076;-61
2023/03/12 04:14:41;;;;;;;2.78;1.80;;;14.80;55.80;;;;;;10452622;28;20017;-61
2023/03/12 04:19:42;;;;;;;2.35;1.27;;;15.00;55.50;;;;;;10451381;28;20439;-61
2023/03/12 04:24:43;;;;;;;2.97;1.10;;;15.20;55.10;;;;;;10450979;28;20214;-61
2023/03/12 04:29:44;;;;;;;2.05;1.17;;;15.30;54.80;;;;;;10450725;28;20024;-61
2023/03/12 04:34:44;;;;;;;1.63;1.10;;;15.40;54.50;;;;;;10451998;28;20431;-61
2023/03/12 04:39:45;;;;;;;2.20;1.20;;;15.60;54.30;;;;;;10429569;28;20099;-61
2023/03/12 04:44:46;;;;;;;2.80;1.20;;;15.70;54.00;;;;;;10450364;28;20487;-61
2023/03/12 04:49:46;;;;;;;2.38;1.52;;;15.90;53.70;;;;;;10444543;28;20373;-61
2023/03/12 04:54:47;;;;;;;2.58;1.15;;;16.00;53.40;;;;;;10451286;28;20025;-61
2023/03/12 04:59:48;;;;;;;2.13;1.48;;;16.00;53.30;;;;;;10449483;28;20108;-61
2023/03/12 05:04:48;;;;;;;1.55;1.25;;;16.00;53.40;;;;;;10449358;28;20107;-61
2023/03/12 05:09:49;;;;;;;2.00;1.48;;;16.10;53.30;;;;;;10449266;28;20106;-61
2023/03/12 05:14:50;;;;;;;2.35;0.88;;;16.10;53.30;;;;;;10449586;28;20017;-61
2023/03/12 05:19:50;;;;;;;1.48;0.93;;;16.20;53.20;;;;;;10450444;28;20033;-61
2023/03/12 05:24:51;;;;;;;1.63;0.90;;;16.20;53.10;;;;;;10428660;28;20086;-61
2023/03/12 05:29:52;;;;;;;1.88;1.20;;;16.30;53.10;;;;;;10446606;28;20476;-60
2023/03/12 05:34:53;;;;;;;1.80;1.10;;;16.30;53.20;;;;;;10448152;28;20025;-60
2023/03/12 05:39:54;;;;;;;1.90;1.10;;;16.40;52.80;;;;;;10449074;28;20135;-62
2023/03/12 05:44:55;;;;;;;1.73;1.00;;;16.50;52.60;;;;;;10448356;28;20092;-61
2023/03/12 05:49:55;;;;;;;2.38;1.13;;;16.50;52.50;;;;;;10442239;28;20417;-61
2023/03/12 05:54:56;;;;;;;1.48;0.90;;;16.50;52.60;;;;;;10447906;28;20079;-61
2023/03/12 05:59:56;;;;;;;2.35;1.08;;;16.50;52.70;;;;;;10447012;28;20037;-62
2023/03/12 06:04:57;;;;;;;7.30;1.92;;;16.50;52.70;;;;;;10447838;28;20041;-61
2023/03/12 06:09:58;;;;;;;17.58;2.63;;;16.60;53.50;;;;;;10447399;28;20075;-61
2023/03/12 06:14:59;;;;;;;13.65;2.55;;;16.60;54.10;;;;;;10447954;28;20404;-60
2023/03/12 06:20:00;;;;;;;12.15;2.05;;;16.80;54.90;;;;;;10447256;28;20064;-60
2023/03/12 06:25:00;;;;;;;13.85;2.67;;;17.00;54.50;;;;;;10447499;28;20056;-59
2023/03/12 06:30:02;;;;;;;12.65;2.15;;;17.00;54.90;;;;;;10446382;28;20059;-61
2023/03/12 06:35:04;;;;;;;16.42;2.30;;;17.10;54.80;;;;;;10426015;28;20419;-61
2023/03/12 06:40:08;;;;;;;13.65;2.08;;;16.90;55.00;;;;;;10429269;28;20142;-60
2023/03/12 06:45:09;;;;;;;10.27;2.95;;;17.20;54.10;;;;;;10446013;28;20021;-61
2023/03/12 06:50:10;;;;;;;10.85;3.05;;;17.10;54.00;;;;;;10440063;28;20017;-60
2023/03/12 06:55:11;;;;;;;12.15;2.10;;;17.10;54.10;;;;;;10446548;28;20013;-59
2023/03/12 07:00:13;;;;;;;16.95;2.63;;;16.80;55.10;;;;;;10443734;28;20552;-59
2023/03/12 07:05:13;;;;;;;11.23;1.90;;;16.90;54.60;;;;;;10435708;28;20488;-60
2023/03/12 07:10:14;;;;;;;7.60;1.90;;;16.70;54.90;;;;;;10444929;28;20049;-63
2023/03/12 07:15:15;;;;;;;15.05;2.40;;;16.60;55.80;;;;;;10446462;28;20024;-60
2023/03/12 07:20:16;;;;;;;13.13;2.30;;;16.40;56.60;;;;;;10444327;28;20096;-60
2023/03/12 07:25:17;;;;;;;12.70;2.28;;;16.40;55.80;;;;;;10443734;28;20033;-61
2023/03/12 07:30:18;;;;;;;12.65;3.15;;;16.40;55.70;;;;;;10444587;28;20074;-61
2023/03/12 07:35:18;;;;;;;8.63;2.13;;;16.40;55.70;;;;;;10445138;28;20484;-59
2023/03/12 07:40:19;;;;;;;9.07;2.40;;;16.30;55.50;;;;;;10445977;28;20079;-60
2023/03/12 07:45:20;;;;;;;8.38;1.65;;;16.30;55.40;;;;;;10446109;28;20013;-61
2023/03/12 07:50:23;;;;;;;7.00;1.85;;;16.30;55.30;;;;;;10455691;28;20088;-61
2023/03/12 07:55:23;;;;;;;19.60;2.95;;;16.20;55.30;;;;;;10444481;28;20097;-61
2023/03/12 08:00:27;;;;;;;3.97;1.50;;;16.20;55.30;;;;;;10443926;28;20017;-61
2023/03/12 08:05:27;;;;;;;6.30;2.10;;;16.20;55.20;;;;;;10427851;28;20060;-60
2023/03/12 08:10:28;;;;;;;5.70;1.60;;;16.20;55.00;;;;;;10445380;28;20129;-61
2023/03/12 08:15:29;;;;;;;9.40;1.65;;;16.20;54.90;;;;;;10446446;28;20041;-60
2023/03/12 08:20:29;;;;;;;4.28;1.27;;;16.20;54.90;;;;;;10452782;28;20075;-61
2023/03/12 08:25:30;;;;;;;3.70;1.30;;;16.20;54.90;;;;;;10450785;28;20017;-60
2023/03/12 08:30:31;;;;;;;5.03;1.20;;;16.20;54.90;;;;;;10451993;28;20032;-60
2023/03/12 08:35:31;;;;;;;4.32;1.40;;;16.20;54.90;;;;;;10438802;28;20552;-61
2023/03/12 08:40:32;;;;;;;3.70;1.48;;;16.20;54.90;;;;;;10461770;28;20013;-61
2023/03/12 08:45:35;;;;;;;6.93;2.08;;;16.10;55.00;;;;;;10450531;28;20113;-60
2023/03/12 08:50:35;;;;;;;13.18;2.83;;;16.00;56.00;;;;;;10441787;28;20350;-59
2023/03/12 08:55:36;;;;;;;16.75;2.55;;;16.30;57.00;;;;;;10449733;28;20029;-59
2023/03/12 09:00:37;;;;;;;19.52;2.72;;;16.30;57.00;;;;;;10449962;28;20013;-61
2023/03/12 09:05:37;;;;;;;6.65;2.03;;;16.40;57.40;;;;;;10449698;28;20020;-61
2023/03/12 09:10:38;;;;;;;26.25;4.40;;;16.30;58.30;;;;;;10449195;28;20048;-60
2023/03/12 09:15:40;;;;;;;12.30;2.00;;;16.40;58.30;;;;;;10449195;28;20080;-59
2023/03/12 09:20:42;;;;;;;17.17;3.00;;;16.30;59.10;;;;;;10448173;28;20025;-62
2023/03/12 09:25:46;;;;;;;11.15;2.50;;;16.30;59.60;;;;;;10443247;28;20029;-62
2023/03/12 09:30:47;;;;;;;14.38;2.75;;;16.20;59.80;;;;;;10448585;28;20025;-59
2023/03/12 09:35:58;;;;;;;25.90;2.90;;;16.10;60.00;;;;;;10448013;28;20025;-58
2023/03/12 09:40:59;;;;;;;14.25;3.78;;;16.00;59.30;;;;;;10449421;28;20017;-60
2023/03/12 09:46:00;;;;;;;19.58;3.08;;;16.00;60.50;;;;;;10447131;28;20028;-60
2023/03/12 09:51:26;;;;;;;15.93;2.53;;;16.10;60.50;;;;;;10444863;28;20453;-58
2023/03/12 09:56:27;;;;;;;19.38;3.22;;;16.10;60.80;;;;;;10446191;28;20024;-57
2023/03/12 10:01:50;;;;;;;40.65;5.18;;;16.10;60.70;;;;;;10443709;28;20013;-58
2023/03/12 10:06:59;;;;;;;9.82;2.05;;;16.10;60.30;;;;;;10441640;28;20057;-58
2023/03/12 10:12:27;;;;;;;17.00;3.28;;;16.00;60.20;;;;;;10443168;28;20036;-58
2023/03/12 10:17:52;;;;;;;19.83;4.30;;;16.00;60.40;;;;;;10443368;28;20041;-57
2023/03/12 10:23:05;;;;;;;22.05;2.53;;;16.10;60.50;;;;;;10444976;28;20052;-57
2023/03/12 10:28:12;;;;;;;19.40;3.42;;;16.10;61.20;;;;;;10445215;28;20021;-59
2023/03/12 10:33:17;;;;;;;14.48;3.50;;;16.00;61.60;;;;;;10444843;28;20075;-59
2023/03/12 10:38:27;;;;;;;17.13;3.83;;;16.10;61.70;;;;;;10443100;28;20021;-57
2023/03/12 10:43:29;;;;;;;23.35;4.78;;;16.00;60.80;;;;;;10443579;28;20432;-57
2023/03/12 10:48:29;;;;;;;28.10;5.50;;;16.00;61.30;;;;;;10442992;28;20017;-58
2023/03/12 10:53:34;;;;;;;38.78;5.60;;;16.00;61.50;;;;;;10426540;28;20102;-59
2023/03/12 10:58:41;;;;;;;27.15;4.97;;;16.00;61.30;;;;;;10433712;28;20563;-58
2023/03/12 11:03:44;;;;;;;24.08;5.35;;;15.90;62.00;;;;;;10430148;28;20033;-57
2023/03/12 11:09:16;;;;;;;24.50;4.75;;;15.90;62.00;;;;;;10429126;28;20194;-59
2023/03/12 11:14:23;;;;;;;19.88;4.85;;;15.60;63.80;;;;;;10426586;28;20030;-58
2023/03/12 11:19:33;;;;;;;24.80;5.13;;;15.50;63.60;;;;;;10431225;28;20063;-59
2023/03/12 11:24:34;;;;;;;22.98;3.50;;;15.70;63.50;;;;;;10447058;28;20472;-59
2023/03/12 11:29:48;;;;;;;15.90;4.15;;;15.90;64.50;;;;;;10458919;28;20017;-57
2023/03/12 11:34:50;;;;;;;19.40;4.38;;;16.00;64.70;;;;;;10458277;28;20028;-57
2023/03/12 11:40:31;;;;;;;16.55;4.32;;;16.00;64.80;;;;;;10439531;28;20030;-58
2023/03/12 11:45:46;;;;;;;12.60;4.47;;;16.00;64.40;;;;;;10436248;28;20387;-61
2023/03/12 11:51:24;;;;;;;20.08;4.50;;;15.90;64.10;;;;;;10443896;28;20555;-61
2023/03/12 11:56:55;;;;;;;20.13;4.82;;;15.80;64.20;;;;;;10450412;28;20456;-59
2023/03/12 12:02:39;;;;;;;13.85;3.55;;;15.70;64.30;;;;;;10449414;28;20078;-58
2023/03/12 12:08:02;;;;;;;15.68;4.25;;;15.90;63.30;;;;;;10450044;28;20492;-55
2023/03/12 12:13:30;;;;;;;16.20;4.03;;;16.10;62.60;;;;;;10441448;28;20009;-56
2023/03/12 12:19:10;;;;;;;13.20;3.72;;;15.90;63.70;;;;;;10445549;28;20487;-58
2023/03/12 12:24:39;;;;;;;11.90;2.80;;;15.70;64.50;;;;;;10425647;28;20025;-58
2023/03/12 12:30:19;;;;;;;10.68;2.90;;;15.60;65.20;;;;;;10448401;28;20075;-56
2023/03/12 12:35:36;;;;;;;12.30;3.47;;;15.50;65.50;;;;;;10417588;28;20120;-55
2023/03/12 12:41:09;;;;;;;27.15;5.28;;;15.60;65.40;;;;;;10421265;28;20014;-57
2023/03/12 12:46:21;;;;;;;21.33;3.88;;;15.60;65.50;;;;;;10425723;28;20021;-57
2023/03/12 12:51:34;;;;;;;20.85;5.88;;;15.80;65.00;;;;;;10447366;28;20036;-57
2023/03/12 12:57:19;;;;;;;40.33;6.68;;;15.80;64.70;;;;;;10430600;28;20025;-57
2023/03/12 13:02:25;;;;;;;29.88;4.30;;;15.60;65.00;;;;;;10449309;28;20017;-58
2023/03/12 13:07:25;;;;;;;26.88;4.82;;;15.50;65.70;;;;;;10433281;28;20064;-57
2023/03/12 13:12:46;;;;;;;30.73;5.30;;;15.40;65.10;;;;;;10448472;28;20524;-56
2023/03/12 13:18:07;;;;;;;18.38;4.72;;;15.50;65.20;;;;;;10447457;28;20048;-57
2023/03/12 13:23:50;;;;;;;27.35;4.10;;;15.50;64.60;;;;;;10445977;28;20017;-57
2023/03/12 13:28:53;;;;;;;21.98;4.25;;;15.50;64.40;;;;;;10446009;28;20431;-58
2023/03/12 13:34:07;;;;;;;15.93;3.38;;;15.50;64.30;;;;;;10446726;28;20112;-55
2023/03/12 13:39:14;;;;;;;14.68;3.17;;;15.50;64.00;;;;;;10444319;28;20055;-58
2023/03/12 13:44:27;;;;;;;16.55;3.42;;;15.50;63.80;;;;;;10444247;28;20021;-59
2023/03/12 13:49:42;;;;;;;12.55;4.10;;;15.50;63.50;;;;;;10450699;28;20535;-57
2023/03/12 13:54:47;;;;;;;15.57;4.70;;;15.60;63.20;;;;;;10447092;28;20082;-59
2023/03/12 13:59:49;;;;;;;12.90;2.90;;;15.70;62.70;;;;;;10458182;28;20041;-59
2023/03/12 14:04:51;;;;;;;12.63;3.47;;;15.70;62.70;;;;;;10444628;28;20017;-58
2023/03/12 14:10:17;;;;;;;13.27;3.47;;;15.70;62.60;;;;;;10444832;28;20049;-59
2023/03/12 14:15:26;;;;;;;8.48;3.13;;;15.60;63.50;;;;;;10443371;28;20024;-59
2023/03/12 14:20:28;;;;;;;9.02;3.08;;;15.50;63.40;;;;;;10445659;28;20025;-58
2023/03/12 14:25:43;;;;;;;11.55;3.38;;;15.60;63.20;;;;;;10444543;28;20348;-58
2023/03/12 14:31:05;;;;;;;10.13;2.88;;;15.60;62.90;;;;;;10444175;28;20013;-58
2023/03/12 14:36:14;;;;;;;8.70;2.67;;;15.60;63.50;;;;;;10443426;28;20029;-59
2023/03/12 14:41:34;;;;;;;13.87;4.30;;;15.50;63.30;;;;;;10444178;28;20013;-58
2023/03/12 14:46:35;;;;;;;9.55;3.42;;;15.50;62.60;;;;;;10433515;28;20029;-58
2023/03/12 14:51:36;;;;;;;13.45;3.58;;;15.50;62.30;;;;;;10446349;28;20049;-58
2023/03/12 14:56:42;;;;;;;9.30;2.40;;;15.50;62.20;;;;;;10446754;28;20057;-58
2023/03/12 15:01:44;;;;;;;8.23;2.67;;;15.50;63.10;;;;;;10437279;28;20429;-57
2023/03/12 15:06:57;;;;;;;10.20;3.33;;;15.40;63.10;;;;;;10447016;28;21400;-58
2023/03/12 15:12:16;;;;;;;6.43;2.83;;;15.60;62.70;;;;;;10445354;28;20023;-57
2023/03/12 15:17:19;;;;;;;9.13;2.42;;;15.50;62.80;;;;;;10445377;28;20503;-59
2023/03/12 15:22:23;;;;;;;11.10;3.08;;;15.50;63.50;;;;;;10445590;28;20027;-59
2023/03/12 15:27:24;;;;;;;15.07;3.38;;;15.50;64.40;;;;;;10452926;28;20108;-60
2023/03/12 15:32:26;;;;;;;10.27;3.10;;;15.40;64.90;;;;;;10454526;28;20115;-59
2023/03/12 15:37:39;;;;;;;42.78;4.85;;;15.40;65.00;;;;;;10453901;28;20033;-58
2023/03/12 15:42:44;;;;;;;8.77;3.70;;;15.40;65.40;;;;;;10442513;28;20021;-58
2023/03/12 15:47:46;;;;;;;13.88;3.97;;;15.40;65.50;;;;;;10427998;28;20030;-59
2023/03/12 15:53:05;;;;;;;24.95;4.45;;;15.40;65.60;;;;;;10461025;28;20482;-56
2023/03/12 15:58:38;;;;;;;25.27;4.83;;;15.40;65.80;;;;;;10454146;28;20044;-58
2023/03/12 16:03:44;;;;;;;14.63;3.50;;;15.40;65.90;;;;;;10450547;28;20029;-57
2023/03/12 16:08:51;;;;;;;12.35;3.72;;;15.60;64.70;;;;;;10453513;28;20110;-59
2023/03/12 16:14:02;;;;;;;16.70;3.17;;;15.80;64.00;;;;;;10451644;28;20040;-57
2023/03/12 16:19:19;;;;;;;18.38;3.85;;;15.80;64.10;;;;;;10449424;28;20475;-58
2023/03/12 16:24:20;;;;;;;21.50;3.47;;;15.80;64.20;;;;;;10450360;28;20056;-58
2023/03/12 16:29:24;;;;;;;17.10;3.47;;;15.90;63.90;;;;;;10428225;28;20547;-59
2023/03/12 16:34:25;;;;;;;66.78;14.88;;;16.10;64.10;;;;;;10433933;28;20449;-59
2023/03/12 16:39:29;;;;;;;50.03;11.70;;;16.30;64.50;;;;;;10450193;28;20032;-57
2023/03/12 16:44:33;;;;;;;26.70;11.13;;;16.40;65.20;;;;;;10434384;28;20009;-58
2023/03/12 16:49:33;;;;;;;25.60;8.50;;;16.30;64.50;;;;;;10466565;28;20025;-56
2023/03/12 16:54:34;;;;;;;16.40;7.28;;;16.40;68.30;;;;;;10452071;28;20532;-57
2023/03/12 16:59:37;;;;;;;28.23;10.07;;;16.70;67.30;;;;;;10451401;28;20111;-56
2023/03/12 17:04:37;;;;;;;33.05;9.77;;;16.80;67.20;;;;;;10449797;28;20022;-55
2023/03/12 17:09:38;;;;;;;31.58;10.48;;;16.80;67.40;;;;;;10451276;28;20053;-57
2023/03/12 17:14:39;;;;;;;26.00;9.93;;;16.80;67.30;;;;;;10448444;28;20433;-53
2023/03/12 17:19:41;;;;;;;22.02;8.40;;;16.80;66.80;;;;;;10448291;28;20435;-55
2023/03/12 17:24:43;;;;;;;20.85;8.25;;;16.80;66.50;;;;;;10448512;28;20021;-55
2023/03/12 17:29:44;;;;;;;22.05;8.40;;;16.60;66.70;;;;;;10448878;28;20021;-56
2023/03/12 17:34:45;;;;;;;24.00;8.75;;;16.50;67.00;;;;;;10428060;28;20024;-55
2023/03/12 17:39:47;;;;;;;28.10;7.85;;;16.40;67.20;;;;;;10443186;28;20064;-56
2023/03/12 17:44:47;;;;;;;27.33;8.43;;;16.20;67.60;;;;;;10433164;28;20028;-57
2023/03/12 17:49:48;;;;;;;38.97;8.52;;;16.10;67.70;;;;;;10438491;28;20029;-56
2023/03/12 17:54:49;;;;;;;56.70;11.70;;;16.00;68.00;;;;;;10426309;28;20032;-56
2023/03/12 17:59:50;;;;;;;64.45;10.07;;;15.90;68.70;;;;;;10431713;28;20075;-56
2023/03/12 18:04:51;;;;;;;31.50;8.40;;;15.80;69.50;;;;;;10435814;28;20021;-56
2023/03/12 18:09:51;;;;;;;34.38;8.70;;;15.80;68.60;;;;;;10447704;28;20057;-59
2023/03/12 18:14:52;;;;;;;29.40;7.40;;;15.80;68.10;;;;;;10446469;28;20021;-56
2023/03/12 18:19:53;;;;;;;25.52;8.05;;;15.70;68.00;;;;;;10446993;28;20032;-56
2023/03/12 18:24:53;;;;;;;27.20;8.57;;;15.70;68.00;;;;;;10446492;28;20195;-55
2023/03/12 18:29:54;;;;;;;21.27;6.75;;;15.60;67.90;;;;;;10441878;28;20117;-56
2023/03/12 18:34:55;;;;;;;22.75;5.90;;;15.60;67.80;;;;;;10441258;28;20575;-56
2023/03/12 18:39:56;;;;;;;21.08;6.22;;;15.50;67.40;;;;;;10447245;28;20028;-56
2023/03/12 18:44:56;;;;;;;22.73;6.10;;;15.50;67.10;;;;;;10427598;28;20044;-56
2023/03/12 18:49:57;;;;;;;24.05;5.65;;;15.50;66.90;;;;;;10446762;28;20524;-59
2023/03/12 18:54:58;;;;;;;17.00;5.15;;;15.70;66.60;;;;;;10447304;28;20100;-57
2023/03/12 18:59:59;;;;;;;19.65;5.40;;;15.80;66.40;;;;;;10446256;28;20126;-56
2023/03/12 19:05:01;;;;;;;18.08;5.40;;;15.80;66.10;;;;;;10446706;28;20356;-56
2023/03/12 19:10:02;;;;;;;26.38;6.03;;;15.80;66.00;;;;;;10442979;28;20526;-55
2023/03/12 19:15:03;;;;;;;13.07;5.40;;;15.90;65.90;;;;;;10432273;28;20021;-56
2023/03/12 19:20:04;;;;;;;14.13;5.25;;;15.80;65.60;;;;;;10423309;28;20303;-58
2023/03/12 19:25:06;;;;;;;17.77;4.95;;;15.80;65.50;;;;;;10427599;28;20032;-56
2023/03/12 19:30:07;;;;;;;15.63;5.47;;;15.90;65.60;;;;;;10411594;28;20465;-56
2023/03/12 19:35:10;;;;;;;13.80;4.40;;;15.80;65.70;;;;;;10439191;28;20021;-55
2023/03/12 19:40:12;;;;;;;15.38;4.85;;;15.90;65.60;;;;;;10429360;28;20045;-55
2023/03/12 19:45:12;;;;;;;15.88;4.63;;;15.80;65.50;;;;;;10442680;28;20017;-54
2023/03/12 19:50:13;;;;;;;14.43;4.88;;;15.80;65.50;;;;;;10433928;28;20099;-56
2023/03/12 19:55:14;;;;;;;16.38;4.43;;;15.80;65.50;;;;;;10443809;28;20120;-54
2023/03/12 20:00:15;;;;;;;11.57;4.32;;;15.80;65.50;;;;;;10443179;28;20454;-54
2023/03/12 20:05:16;;;;;;;16.90;4.70;;;15.80;65.40;;;;;;10443501;28;20410;-54
2023/03/12 20:10:16;;;;;;;10.10;4.25;;;15.80;65.50;;;;;;10439752;28;20148;-53
2023/03/12 20:15:17;;;;;;;11.68;4.78;;;15.70;65.50;;;;;;10445936;28;20029;-54
2023/03/12 20:20:18;;;;;;;9.80;3.13;;;15.70;65.40;;;;;;10444448;28;20029;-54
2023/03/12 20:25:19;;;;;;;12.00;3.97;;;15.80;65.00;;;;;;10445401;28;20025;-53
2023/03/12 20:30:19;;;;;;;14.85;4.10;;;15.80;64.90;;;;;;10447504;28;20053;-54
2023/03/12 20:35:20;;;;;;;13.27;6.43;;;15.80;64.80;;;;;;10447723;28;20023;-53
2023/03/12 20:40:20;;;;;;;11.43;4.10;;;15.70;64.90;;;;;;10448308;28;20106;-54
2023/03/12 20:45:22;;;;;;;8.45;3.08;;;15.70;65.00;;;;;;10448566;28;20083;-54
2023/03/12 20:50:22;;;;;;;7.20;3.45;;;15.70;65.10;;;;;;10442556;28;20075;-54
2023/03/12 20:55:23;;;;;;;11.63;3.78;;;15.60;65.20;;;;;;10430177;28;20528;-54
2023/03/12 21:00:24;;;;;;;9.35;3.33;;;15.60;65.30;;;;;;10447618;28;20114;-54
2023/03/12 21:05:26;;;;;;;9.18;3.47;;;15.50;65.30;;;;;;10439546;28;20108;-54
2023/03/12 21:10:27;;;;;;;7.93;3.05;;;15.50;65.40;;;;;;10446947;28;20049;-54
2023/03/12 21:15:28;;;;;;;6.35;2.65;;;15.40;65.40;;;;;;10446904;28;20033;-53
2023/03/12 21:20:28;;;;;;;5.95;2.42;;;15.40;65.50;;;;;;10445735;28;20029;-53
2023/03/12 21:25:33;;;;;;;5.75;2.70;;;15.40;65.50;;;;;;10446516;28;20531;-54
2023/03/12 21:30:34;;;;;;;8.98;3.33;;;15.30;65.50;;;;;;10446260;28;20070;-55
2023/03/12 21:35:35;;;;;;;10.40;3.53;;;15.30;65.50;;;;;;10444835;28;20027;-55
2023/03/12 21:40:36;;;;;;;9.23;3.88;;;15.30;65.60;;;;;;10444811;28;20028;-55
2023/03/12 21:45:37;;;;;;;6.70;2.22;;;15.20;65.60;;;;;;10444705;28;20337;-53
2023/03/12 21:50:37;;;;;;;7.72;2.42;;;15.20;65.60;;;;;;10438521;28;20116;-55
2023/03/12 21:55:38;;;;;;;7.63;2.65;;;15.20;65.60;;;;;;10444650;28;20547;-54
2023/03/12 22:00:38;;;;;;;7.43;3.45;;;15.20;65.60;;;;;;10445101;28;20116;-55
2023/03/12 22:05:39;;;;;;;4.45;2.15;;;15.20;65.70;;;;;;10426906;28;20036;-55
2023/03/12 22:10:40;;;;;;;5.43;2.35;;;15.10;65.60;;;;;;10459934;28;20207;-55
2023/03/12 22:15:41;;;;;;;9.63;2.50;;;15.10;65.70;;;;;;10460512;28;20491;-54
2023/03/12 22:20:41;;;;;;;5.97;2.53;;;15.10;65.70;;;;;;10444163;28;20025;-55
2023/03/12 22:25:42;;;;;;;4.20;1.98;;;15.00;65.70;;;;;;10443276;28;20017;-54
2023/03/12 22:30:43;;;;;;;8.07;2.70;;;15.00;65.70;;;;;;10426375;28;20148;-55
2023/03/12 22:35:45;;;;;;;4.75;2.22;;;15.00;65.70;;;;;;10442164;28;20029;-54
2023/03/12 22:40:46;;;;;;;4.78;1.95;;;15.00;65.70;;;;;;10442266;28;20562;-54
2023/03/12 22:45:52;;;;;;;4.80;2.15;;;15.00;65.70;;;;;;10429126;28;20025;-53
2023/03/12 22:50:53;;;;;;;7.30;2.88;;;15.00;65.70;;;;;;10442048;28;20099;-54
2023/03/12 22:56:09;;;;;;;7.45;2.90;;;15.00;65.70;;;;;;10443214;28;20029;-55
2023/03/12 23:01:14;;;;;;;7.15;2.83;;;14.90;65.60;;;;;;10442112;28;20056;-53
2023/03/12 23:06:23;;;;;;;8.38;2.90;;;14.90;65.60;;;;;;10441939;28;20036;-55
2023/03/12 23:11:28;;;;;;;5.37;1.90;;;14.90;65.60;;;;;;10442757;28;20025;-54
2023/03/12 23:16:29;;;;;;;6.07;2.10;;;14.90;65.60;;;;;;10441059;28;20051;-55
2023/03/12 23:21:29;;;;;;;6.07;2.03;;;14.90;65.60;;;;;;10441517;28;20025;-54
2023/03/12 23:26:30;;;;;;;6.30;2.70;;;14.90;65.60;;;;;;10443309;28;20021;-55
2023/03/12 23:31:31;;;;;;;5.90;2.30;;;14.90;65.60;;;;;;10440974;28;20082;-56
2023/03/12 23:36:31;;;;;;;6.47;2.08;;;14.80;65.50;;;;;;10442404;28;20112;-55
2023/03/12 23:41:32;;;;;;;8.07;2.42;;;14.80;65.50;;;;;;10442332;28;20139;-54
2023/03/12 23:46:33;;;;;;;4.35;2.20;;;14.80;65.50;;;;;;10446322;28;20053;-53
2023/03/12 23:51:33;;;;;;;4.97;2.00;;;14.80;65.50;;;;;;10444645;28;20096;-55
2023/03/12 23:56:37;;;;;;;5.45;2.45;;;14.80;65.40;;;;;;10449904;28;20568;-56
